Time;durP1;ratioP1;P1;durP2;ratioP2;P2;SDS_P1;SDS_P2;PMS_P1;PMS_P2;Temp;Humidity;BMP_temperature;BMP_pressure;BME280_temperature;BME280_humidity;BME280_pressure;Samples;Min_cycle;Max_cycle;Signal;HPM_P1;HPM_P2
2023/09/08 00:01:56;;;;;;;;;;;17.90;99.90;;;;;;4939420;29;19941;-89
2023/09/08 00:04:22;;;;;;;;;;;17.90;99.90;;;;;;4940736;29;19927;-89
2023/09/08 00:06:48;;;;;;;;;;;17.90;99.90;;;;;;4941901;29;19934;-89
2023/09/08 00:09:13;;;;;;;;;;;17.80;99.90;;;;;;4945794;28;19941;-89
2023/09/08 00:11:39;;;;;;;;;;;17.80;99.90;;;;;;4939874;29;19950;-90
2023/09/08 00:14:05;;;;;;;;;;;17.70;99.90;;;;;;4937370;29;19977;-89
2023/09/08 00:16:30;;;;;;;;;;;17.70;99.90;;;;;;4940284;29;20000;-89
2023/09/08 00:18:59;;;;;;;;;;;17.70;99.90;;;;;;4935553;28;19934;-89
2023/09/08 00:21:25;;;;;;;;;;;17.60;99.90;;;;;;4937985;28;19926;-89
2023/09/08 00:23:51;;;;;;;;;;;17.60;99.90;;;;;;4938402;29;20449;-89
2023/09/08 00:26:17;;;;;;;;;;;17.50;99.90;;;;;;4938025;28;19931;-90
2023/09/08 00:28:43;;;;;;;;;;;17.50;99.90;;;;;;4937768;29;19970;-89
2023/09/08 00:31:08;;;;;;;;;;;17.40;99.90;;;;;;4948654;28;19934;-89
2023/09/08 00:33:34;;;;;;;;;;;17.50;99.90;;;;;;4939154;29;19931;-89
2023/09/08 00:35:59;;;;;;;;;;;17.40;99.90;;;;;;4938028;29;19986;-89
2023/09/08 00:38:25;;;;;;;;;;;17.40;99.90;;;;;;4949756;29;19930;-89
2023/09/08 00:40:50;;;;;;;;;;;17.40;99.90;;;;;;4937468;29;19986;-87
2023/09/08 00:43:17;;;;;;;;;;;17.30;99.90;;;;;;4937695;29;19929;-88
2023/09/08 00:45:42;;;;;;;;;;;17.30;99.90;;;;;;4929930;29;19927;-88
2023/09/08 00:48:09;;;;;;;;;;;17.20;99.90;;;;;;4936538;29;19933;-88
2023/09/08 00:50:35;;;;;;;;;;;17.10;99.90;;;;;;4941082;29;19957;-88
2023/09/08 00:53:01;;;;;;;;;;;17.10;99.90;;;;;;4935150;28;19927;-89
2023/09/08 00:55:27;;;;;;;;;;;17.00;99.90;;;;;;4938473;29;19931;-88
2023/09/08 00:57:52;;;;;;;;;;;17.00;99.90;;;;;;4940772;29;19926;-89
2023/09/08 01:00:18;;;;;;;;;;;16.90;99.90;;;;;;4938339;28;19966;-88
2023/09/08 01:02:44;;;;;;;;;;;16.90;99.90;;;;;;4930634;28;19935;-88
2023/09/08 01:05:10;;;;;;;;;;;16.90;99.90;;;;;;4950885;29;19998;-89
2023/09/08 01:07:36;;;;;;;;;;;16.80;99.90;;;;;;4951340;28;19977;-89
2023/09/08 01:10:06;;;;;;;;;;;16.80;99.90;;;;;;4926058;28;20059;-89
2023/09/08 01:12:33;;;;;;;;;;;16.80;99.90;;;;;;4929770;28;19938;-89
2023/09/08 01:14:58;;;;;;;;;;;16.80;99.90;;;;;;4936780;29;19935;-89
2023/09/08 01:17:25;;;;;;;;;;;16.70;99.90;;;;;;4936291;29;19937;-89
2023/09/08 01:19:53;;;;;;;;;;;16.70;99.90;;;;;;4941435;29;20340;-89
2023/09/08 01:22:25;;;;;;;;;;;16.60;99.90;;;;;;4936751;29;20292;-88
2023/09/08 01:25:09;;;;;;;;;;;16.60;99.90;;;;;;4953061;28;19937;-88
2023/09/08 01:27:36;;;;;;;;;;;16.60;99.90;;;;;;4936580;28;19927;-88
2023/09/08 01:30:03;;;;;;;;;;;16.60;99.90;;;;;;4933184;29;19927;-91
2023/09/08 01:32:29;;;;;;;;;;;16.50;99.90;;;;;;4937158;29;19927;-90
2023/09/08 01:34:57;;;;;;;;;;;16.60;99.90;;;;;;4933223;29;19927;-90
2023/09/08 01:37:23;;;;;;;;;;;16.50;99.90;;;;;;4936517;28;19927;-90
2023/09/08 01:39:49;;;;;;;;;;;16.50;99.90;;;;;;4936736;29;19934;-90
2023/09/08 01:42:14;;;;;;;;;;;16.50;99.90;;;;;;4939372;28;20026;-90
2023/09/08 01:44:40;;;;;;;;;;;16.40;99.90;;;;;;4932686;28;19927;-90
2023/09/08 01:47:05;;;;;;;;;;;16.40;99.90;;;;;;4917526;29;20373;-89
2023/09/08 01:49:31;;;;;;;;;;;16.40;99.90;;;;;;4937970;28;19938;-89
2023/09/08 01:51:56;;;;;;;;;;;16.40;99.90;;;;;;4940340;28;19934;-89
2023/09/08 01:54:22;;;;;;;;;;;16.40;99.90;;;;;;4955037;28;19930;-89
2023/09/08 01:56:48;;;;;;;;;;;16.40;99.90;;;;;;4941037;29;19930;-89
2023/09/08 01:59:13;;;;;;;;;;;16.40;99.90;;;;;;4940448;29;19930;-89
2023/09/08 02:01:39;;;;;;;;;;;16.40;99.90;;;;;;4953977;28;19927;-89
2023/09/08 02:04:05;;;;;;;;;;;16.30;99.90;;;;;;4941734;29;19930;-89
2023/09/08 02:06:31;;;;;;;;;;;16.30;99.90;;;;;;4940128;29;19930;-89
2023/09/08 02:08:56;;;;;;;;;;;16.30;99.90;;;;;;4937898;29;20047;-89
2023/09/08 02:11:22;;;;;;;;;;;16.20;99.90;;;;;;4936831;29;19935;-88
2023/09/08 02:13:48;;;;;;;;;;;16.10;99.90;;;;;;4939378;29;19926;-89
2023/09/08 02:16:14;;;;;;;;;;;16.10;99.90;;;;;;4940397;29;22549;-89
2023/09/08 02:18:41;;;;;;;;;;;16.00;99.90;;;;;;4955097;29;19938;-88
2023/09/08 02:21:06;;;;;;;;;;;16.00;99.90;;;;;;4937797;28;19946;-91
2023/09/08 02:23:32;;;;;;;;;;;16.00;99.90;;;;;;4941733;29;19987;-89
2023/09/08 02:25:57;;;;;;;;;;;15.90;99.90;;;;;;4941485;29;20340;-89
2023/09/08 02:28:23;;;;;;;;;;;15.90;99.90;;;;;;4943070;29;19931;-89
2023/09/08 02:30:49;;;;;;;;;;;15.90;99.90;;;;;;4918618;29;19938;-89
2023/09/08 02:33:14;;;;;;;;;;;15.90;99.90;;;;;;4942127;28;19927;-89
2023/09/08 02:35:40;;;;;;;;;;;15.80;99.90;;;;;;4941881;28;19931;-89
2023/09/08 02:38:05;;;;;;;;;;;15.80;99.90;;;;;;4944193;29;19995;-89
2023/09/08 02:40:33;;;;;;;;;;;15.80;99.90;;;;;;4939513;28;19927;-89
2023/09/08 02:43:00;;;;;;;;;;;15.80;99.90;;;;;;4939659;29;19927;-89
2023/09/08 02:45:25;;;;;;;;;;;15.80;99.90;;;;;;4940777;29;19931;-89
2023/09/08 02:47:51;;;;;;;;;;;15.70;99.90;;;;;;4940157;29;19927;-89
2023/09/08 02:50:16;;;;;;;;;;;15.70;99.90;;;;;;4940688;29;20002;-89
2023/09/08 02:52:42;;;;;;;;;;;15.70;99.90;;;;;;4938569;29;19935;-89
2023/09/08 02:55:08;;;;;;;;;;;15.70;99.90;;;;;;4938413;28;19970;-89
2023/09/08 02:57:33;;;;;;;;;;;15.60;99.90;;;;;;4940443;29;19956;-88
2023/09/08 02:59:59;;;;;;;;;;;15.70;99.90;;;;;;4940419;29;19942;-88
2023/09/08 03:02:25;;;;;;;;;;;15.70;99.90;;;;;;4935098;29;19927;-88
2023/09/08 03:04:51;;;;;;;;;;;15.70;99.90;;;;;;4936433;29;20078;-89
2023/09/08 03:07:16;;;;;;;;;;;15.60;99.90;;;;;;4940498;29;19965;-88
2023/09/08 03:09:42;;;;;;;;;;;15.60;99.90;;;;;;4939966;29;20217;-88
2023/09/08 03:12:07;;;;;;;;;;;15.60;99.90;;;;;;4935362;29;19927;-88
2023/09/08 03:14:33;;;;;;;;;;;15.70;99.90;;;;;;4938106;29;19966;-88
2023/09/08 03:16:58;;;;;;;;;;;15.60;99.90;;;;;;4955126;28;19986;-88
2023/09/08 03:19:24;;;;;;;;;;;15.70;99.90;;;;;;4939205;29;19934;-88
2023/09/08 03:21:50;;;;;;;;;;;15.70;99.90;;;;;;4937686;29;19966;-90
2023/09/08 03:24:15;;;;;;;;;;;15.70;99.90;;;;;;4934312;28;19982;-89
2023/09/08 03:26:41;;;;;;;;;;;15.70;99.90;;;;;;4952538;28;20318;-89
2023/09/08 03:29:06;;;;;;;;;;;15.60;99.90;;;;;;4939709;29;19988;-88
2023/09/08 03:31:32;;;;;;;;;;;15.60;99.90;;;;;;4938085;28;19927;-88
2023/09/08 03:33:58;;;;;;;;;;;15.60;99.90;;;;;;4939038;29;19990;-88
2023/09/08 03:36:24;;;;;;;;;;;15.60;99.90;;;;;;4934433;29;19931;-88
2023/09/08 03:38:50;;;;;;;;;;;15.50;99.90;;;;;;4938571;28;19927;-88
2023/09/08 03:41:15;;;;;;;;;;;15.50;99.90;;;;;;4937981;29;20014;-89
2023/09/08 03:43:41;;;;;;;;;;;15.50;99.90;;;;;;4935962;29;19931;-88
2023/09/08 03:46:06;;;;;;;;;;;15.50;99.90;;;;;;4938918;29;19939;-88
2023/09/08 03:48:32;;;;;;;;;;;15.50;99.90;;;;;;4939342;28;19931;-88
2023/09/08 03:50:58;;;;;;;;;;;15.50;99.90;;;;;;4939875;28;19990;-88
2023/09/08 03:53:24;;;;;;;;;;;15.50;99.90;;;;;;4939074;29;19942;-88
2023/09/08 03:55:49;;;;;;;;;;;15.50;99.90;;;;;;4933210;28;19957;-89
2023/09/08 03:58:15;;;;;;;;;;;15.50;99.90;;;;;;4939627;29;19927;-89
2023/09/08 04:00:41;;;;;;;;;;;15.50;99.90;;;;;;5020676;28;19958;-89
2023/09/08 04:03:07;;;;;;;;;;;15.50;99.90;;;;;;4939481;29;19950;-88
2023/09/08 04:05:33;;;;;;;;;;;15.50;99.90;;;;;;4937126;28;19926;-89
2023/09/08 04:07:58;;;;;;;;;;;15.50;99.90;;;;;;4937295;29;20373;-89
2023/09/08 04:10:24;;;;;;;;;;;15.50;99.90;;;;;;4939106;29;19973;-89
2023/09/08 04:12:50;;;;;;;;;;;15.40;99.90;;;;;;4934631;29;20056;-89
2023/09/08 04:15:15;;;;;;;;;;;15.40;99.90;;;;;;4937374;29;20095;-90
2023/09/08 04:17:41;;;;;;;;;;;15.40;99.90;;;;;;4917977;29;19927;-90
2023/09/08 04:20:08;;;;;;;;;;;15.40;99.90;;;;;;4934241;29;19930;-88
2023/09/08 04:22:33;;;;;;;;;;;15.40;99.90;;;;;;4935042;29;19935;-88
2023/09/08 04:25:00;;;;;;;;;;;15.40;99.90;;;;;;4928128;29;19954;-89
2023/09/08 04:27:25;;;;;;;;;;;15.40;99.90;;;;;;4952358;28;19949;-89
2023/09/08 04:29:51;;;;;;;;;;;15.30;99.90;;;;;;4937835;28;19990;-88
2023/09/08 04:32:16;;;;;;;;;;;15.40;99.90;;;;;;4919212;28;19957;-88
2023/09/08 04:34:42;;;;;;;;;;;15.40;99.90;;;;;;4936804;29;19926;-89
2023/09/08 04:37:08;;;;;;;;;;;15.40;99.90;;;;;;4938918;29;19927;-89
2023/09/08 04:39:34;;;;;;;;;;;15.40;99.90;;;;;;4938974;28;19985;-89
2023/09/08 04:41:59;;;;;;;;;;;15.40;99.90;;;;;;4938793;28;19946;-89
2023/09/08 04:44:25;;;;;;;;;;;15.40;99.90;;;;;;4948113;28;20007;-88
2023/09/08 04:46:51;;;;;;;;;;;15.40;99.90;;;;;;4938435;29;19937;-89
2023/09/08 04:49:17;;;;;;;;;;;15.30;99.90;;;;;;4954548;29;19926;-89
2023/09/08 04:51:43;;;;;;;;;;;15.40;99.90;;;;;;4922375;28;19933;-89
2023/09/08 04:54:08;;;;;;;;;;;15.30;99.90;;;;;;4937776;29;19927;-88
2023/09/08 04:56:34;;;;;;;;;;;15.30;99.90;;;;;;4932360;28;19986;-88
2023/09/08 04:59:00;;;;;;;;;;;15.30;99.90;;;;;;4936735;29;19966;-89
2023/09/08 05:01:26;;;;;;;;;;;15.30;99.90;;;;;;4937546;29;19927;-89
2023/09/08 05:03:52;;;;;;;;;;;15.30;99.90;;;;;;4939535;29;19927;-88
2023/09/08 05:06:18;;;;;;;;;;;15.30;99.90;;;;;;4938644;29;19934;-88
2023/09/08 05:08:44;;;;;;;;;;;15.30;99.90;;;;;;4935911;29;19934;-89
2023/09/08 05:11:09;;;;;;;;;;;15.30;99.90;;;;;;4921855;29;19950;-89
2023/09/08 05:13:35;;;;;;;;;;;15.30;99.90;;;;;;4935859;29;19938;-88
2023/09/08 05:16:10;;;;;;;;;;;15.30;99.90;;;;;;4933526;29;19938;-88
2023/09/08 05:18:36;;;;;;;;;;;15.30;99.90;;;;;;4923825;28;19935;-88
2023/09/08 05:21:02;;;;;;;;;;;15.30;99.90;;;;;;4934714;29;19927;-88
2023/09/08 05:23:28;;;;;;;;;;;15.30;99.90;;;;;;4935341;29;19973;-88
2023/09/08 05:25:53;;;;;;;;;;;15.30;99.90;;;;;;4935752;29;19974;-88
2023/09/08 05:28:19;;;;;;;;;;;15.40;99.90;;;;;;4938809;28;19926;-88
2023/09/08 05:30:44;;;;;;;;;;;15.40;99.90;;;;;;4934882;29;19934;-89
2023/09/08 05:33:10;;;;;;;;;;;15.40;99.90;;;;;;4933315;29;20306;-88
2023/09/08 05:35:36;;;;;;;;;;;15.40;99.90;;;;;;4935465;28;19985;-88
2023/09/08 05:38:01;;;;;;;;;;;15.40;99.90;;;;;;4932644;28;19938;-88
2023/09/08 05:40:27;;;;;;;;;;;15.50;99.90;;;;;;4935581;29;19977;-89
2023/09/08 05:42:53;;;;;;;;;;;15.50;99.90;;;;;;4915720;29;19935;-89
2023/09/08 05:45:18;;;;;;;;;;;15.50;99.90;;;;;;4949915;28;19934;-88
2023/09/08 05:47:44;;;;;;;;;;;15.60;99.90;;;;;;4936189;29;19930;-89
2023/09/08 05:50:10;;;;;;;;;;;15.60;99.90;;;;;;4937937;28;19927;-88
2023/09/08 05:52:35;;;;;;;;;;;15.60;99.90;;;;;;4937709;29;20364;-88
2023/09/08 05:55:01;;;;;;;;;;;15.70;99.90;;;;;;4955212;28;19927;-89
2023/09/08 05:57:26;;;;;;;;;;;15.80;99.90;;;;;;4940049;29;19938;-89
2023/09/08 05:59:52;;;;;;;;;;;15.80;99.90;;;;;;4944222;29;19963;-89
2023/09/08 06:02:17;;;;;;;;;;;15.90;99.90;;;;;;4960388;28;19930;-89
2023/09/08 06:04:43;;;;;;;;;;;15.90;99.90;;;;;;4938270;29;19927;-88
2023/09/08 06:07:08;;;;;;;;;;;16.00;99.90;;;;;;4937944;29;19970;-89
2023/09/08 06:09:34;;;;;;;;;;;16.00;99.90;;;;;;4936220;28;19931;-89
2023/09/08 06:11:59;;;;;;;;;;;16.00;99.90;;;;;;4934150;29;19935;-89
2023/09/08 06:14:25;;;;;;;;;;;16.00;99.90;;;;;;4936041;28;19930;-89
2023/09/08 06:16:51;;;;;;;;;;;16.10;99.90;;;;;;4933696;28;21165;-91
2023/09/08 06:19:16;;;;;;;;;;;16.10;99.90;;;;;;4924750;28;19927;-91
2023/09/08 06:21:42;;;;;;;;;;;16.20;99.90;;;;;;4932595;29;19928;-92
2023/09/08 06:24:07;;;;;;;;;;;16.20;99.90;;;;;;4936719;29;19926;-92
2023/09/08 06:26:33;;;;;;;;;;;16.20;99.90;;;;;;4938097;29;19934;-92
2023/09/08 06:28:59;;;;;;;;;;;16.30;99.90;;;;;;4941096;29;20031;-92
2023/09/08 06:31:24;;;;;;;;;;;16.40;99.90;;;;;;4941203;28;20041;-91
2023/09/08 06:33:51;;;;;;;;;;;16.40;99.90;;;;;;4938592;28;19927;-92
2023/09/08 06:36:18;;;;;;;;;;;16.50;99.90;;;;;;4941046;28;19932;-91
2023/09/08 06:38:43;;;;;;;;;;;16.60;99.90;;;;;;4958721;28;19927;-92
2023/09/08 06:41:10;;;;;;;;;;;16.60;99.90;;;;;;4941996;28;20027;-92
2023/09/08 06:43:36;;;;;;;;;;;16.70;99.90;;;;;;4936382;28;19937;-92
2023/09/08 06:46:01;;;;;;;;;;;16.80;99.90;;;;;;4940594;29;19962;-91
2023/09/08 06:48:27;;;;;;;;;;;17.00;99.90;;;;;;4936132;28;19927;-91
2023/09/08 06:50:54;;;;;;;;;;;17.10;99.90;;;;;;4937487;29;19938;-92
2023/09/08 06:53:19;;;;;;;;;;;17.20;99.90;;;;;;4938316;29;19927;-92
2023/09/08 06:55:45;;;;;;;;;;;17.30;99.90;;;;;;4936434;28;20457;-92
2023/09/08 06:58:11;;;;;;;;;;;17.40;99.90;;;;;;4946009;28;19931;-92
2023/09/08 07:00:37;;;;;;;;;;;17.50;99.90;;;;;;4956706;28;19930;-91
2023/09/08 07:03:03;;;;;;;;;;;17.60;99.90;;;;;;4972901;28;19973;-92
2023/09/08 07:05:28;;;;;;;;;;;17.80;99.90;;;;;;4941557;29;20029;-92
2023/09/08 07:07:54;;;;;;;;;;;17.90;99.90;;;;;;4941045;29;19994;-92
2023/09/08 07:10:19;;;;;;;;;;;18.00;99.90;;;;;;4944448;28;19968;-92
2023/09/08 07:12:45;;;;;;;;;;;18.20;99.90;;;;;;4907096;28;19927;-92
2023/09/08 07:15:11;;;;;;;;;;;18.60;99.90;;;;;;4941796;29;19966;-92
2023/09/08 07:17:36;;;;;;;;;;;19.50;99.90;;;;;;4952804;28;19937;-92
2023/09/08 07:20:03;;;;;;;;;;;20.50;99.90;;;;;;4968117;28;19981;-93
2023/09/08 07:22:28;;;;;;;;;;;21.40;99.90;;;;;;4940279;28;19927;-92
2023/09/08 07:24:54;;;;;;;;;;;22.20;99.90;;;;;;4936812;29;19931;-92
2023/09/08 07:27:20;;;;;;;;;;;23.00;99.90;;;;;;4938624;28;19927;-92
2023/09/08 07:29:47;;;;;;;;;;;23.60;99.90;;;;;;4940203;29;19931;-92
2023/09/08 07:32:13;;;;;;;;;;;24.30;99.90;;;;;;4941120;29;19989;-90
2023/09/08 07:34:38;;;;;;;;;;;24.90;99.90;;;;;;4938812;29;19977;-93
2023/09/08 07:37:04;;;;;;;;;;;25.30;99.90;;;;;;4941658;29;19939;-93
2023/09/08 07:39:30;;;;;;;;;;;25.60;99.90;;;;;;4939475;29;19927;-93
2023/09/08 07:41:56;;;;;;;;;;;25.90;99.90;;;;;;4942144;29;19954;-94
2023/09/08 07:44:21;;;;;;;;;;;26.10;99.90;;;;;;4936196;29;19986;-90
2023/09/08 07:46:48;;;;;;;;;;;26.40;99.90;;;;;;5006420;28;19958;-91
2023/09/08 07:49:14;;;;;;;;;;;26.70;99.90;;;;;;4938215;29;19981;-89
2023/09/08 07:51:40;;;;;;;;;;;27.00;99.90;;;;;;4903567;28;19938;-89
2023/09/08 07:54:06;;;;;;;;;;;27.20;99.90;;;;;;4934348;29;19927;-89
2023/09/08 07:56:32;;;;;;;;;;;27.50;99.90;;;;;;4922767;29;19927;-89
2023/09/08 07:58:58;;;;;;;;;;;27.70;99.90;;;;;;4923382;28;19937;-90
2023/09/08 08:01:23;;;;;;;;;;;27.80;99.90;;;;;;4922563;29;20022;-90
2023/09/08 08:03:49;;;;;;;;;;;28.00;99.90;;;;;;4939889;29;19927;-89
2023/09/08 08:06:14;;;;;;;;;;;28.10;99.90;;;;;;4921725;29;20315;-89
2023/09/08 08:08:40;;;;;;;;;;;28.20;99.90;;;;;;4934620;29;19931;-90
2023/09/08 08:11:10;;;;;;;;;;;28.30;99.90;;;;;;4892076;28;19931;-90
2023/09/08 08:13:36;;;;;;;;;;;28.60;99.90;;;;;;4938204;29;19933;-90
2023/09/08 08:16:01;;;;;;;;;;;28.80;99.90;;;;;;4939269;28;19931;-90
2023/09/08 08:18:27;;;;;;;;;;;28.90;99.90;;;;;;4938175;29;19934;-89
2023/09/08 08:20:53;;;;;;;;;;;29.00;99.90;;;;;;4923404;28;19931;-90
2023/09/08 08:23:18;;;;;;;;;;;29.10;99.90;;;;;;4920938;28;20472;-90
2023/09/08 08:25:44;;;;;;;;;;;29.10;99.90;;;;;;4937277;28;19930;-90
2023/09/08 08:28:09;;;;;;;;;;;29.10;99.90;;;;;;4939467;29;19934;-92
2023/09/08 08:30:35;;;;;;;;;;;29.20;99.90;;;;;;4921866;29;19946;-90
2023/09/08 08:33:01;;;;;;;;;;;29.40;99.90;;;;;;4937457;28;19927;-90
2023/09/08 08:35:26;;;;;;;;;;;29.60;99.90;;;;;;4937407;29;19937;-90
2023/09/08 08:37:52;;;;;;;;;;;29.80;99.90;;;;;;4923446;29;19981;-90
2023/09/08 08:40:18;;;;;;;;;;;29.90;99.90;;;;;;4948943;28;19988;-90
2023/09/08 08:42:44;;;;;;;;;;;30.00;99.90;;;;;;5020494;28;19927;-90
2023/09/08 08:45:10;;;;;;;;;;;29.90;99.90;;;;;;4922682;28;19972;-89
2023/09/08 08:47:36;;;;;;;;;;;29.90;99.90;;;;;;4919568;29;19930;-89
2023/09/08 08:50:01;;;;;;;;;;;29.80;99.90;;;;;;4923620;28;19927;-90
2023/09/08 08:52:28;;;;;;;;;;;29.80;99.90;;;;;;4938312;29;19969;-89
2023/09/08 08:54:54;;;;;;;;;;;29.90;99.90;;;;;;4919655;29;19938;-90
2023/09/08 08:57:23;;;;;;;;;;;29.90;99.90;;;;;;4934567;29;19927;-89
2023/09/08 08:59:52;;;;;;;;;;;30.00;99.90;;;;;;4914051;29;19934;-90
2023/09/08 09:02:18;;;;;;;;;;;30.20;99.90;;;;;;4917880;28;19930;-88
2023/09/08 09:04:44;;;;;;;;;;;30.30;99.90;;;;;;4936304;29;19957;-88
2023/09/08 09:07:10;;;;;;;;;;;30.50;99.90;;;;;;4921401;29;20028;-87
2023/09/08 09:09:36;;;;;;;;;;;30.50;99.90;;;;;;4929872;28;20007;-88
2023/09/08 09:12:02;;;;;;;;;;;30.60;99.90;;;;;;4930989;28;19930;-88
2023/09/08 09:14:32;;;;;;;;;;;30.60;98.60;;;;;;4930616;29;20374;-88
2023/09/08 09:16:58;;;;;;;;;;;30.60;97.30;;;;;;4937232;29;19931;-88
2023/09/08 09:19:31;;;;;;;;;;;30.80;97.90;;;;;;4939376;29;20016;-88
2023/09/08 09:21:57;;;;;;;;;;;30.90;96.60;;;;;;4934453;28;19927;-88
2023/09/08 09:24:29;;;;;;;;;;;31.00;98.10;;;;;;4938726;29;19949;-88
2023/09/08 09:26:55;;;;;;;;;;;31.20;99.90;;;;;;4933816;28;19938;-88
2023/09/08 09:29:21;;;;;;;;;;;31.10;95.90;;;;;;4920700;28;19927;-88
2023/09/08 09:31:50;;;;;;;;;;;31.20;97.10;;;;;;4937620;29;19941;-89
2023/09/08 09:34:16;;;;;;;;;;;31.20;97.90;;;;;;4939143;29;19953;-88
2023/09/08 09:36:44;;;;;;;;;;;31.20;97.70;;;;;;4938294;29;20389;-88
2023/09/08 09:39:10;;;;;;;;;;;31.30;97.60;;;;;;4936536;29;19937;-85
2023/09/08 09:41:35;;;;;;;;;;;31.30;97.10;;;;;;4937674;29;20015;-88
2023/09/08 09:44:01;;;;;;;;;;;31.40;95.90;;;;;;4920298;28;19930;-86
2023/09/08 09:46:30;;;;;;;;;;;31.50;97.10;;;;;;4938635;29;19927;-88
2023/09/08 09:48:58;;;;;;;;;;;31.60;96.30;;;;;;4906420;28;20012;-89
2023/09/08 09:51:24;;;;;;;;;;;31.70;95.10;;;;;;4937788;29;19937;-88
2023/09/08 09:53:50;;;;;;;;;;;31.70;93.70;;;;;;4937740;29;19962;-89
2023/09/08 09:56:17;;;;;;;;;;;31.80;94.40;;;;;;4920666;28;19927;-89
2023/09/08 09:58:43;;;;;;;;;;;31.90;93.40;;;;;;4921780;28;19931;-89
2023/09/08 10:01:11;;;;;;;;;;;32.00;95.60;;;;;;4937542;29;19927;-89
2023/09/08 10:03:38;;;;;;;;;;;32.20;91.70;;;;;;4939049;29;19926;-89
2023/09/08 10:06:04;;;;;;;;;;;32.30;93.00;;;;;;4936349;29;19938;-89
2023/09/08 10:08:32;;;;;;;;;;;32.40;91.10;;;;;;4937066;29;19931;-90
2023/09/08 10:10:59;;;;;;;;;;;32.40;90.80;;;;;;4937473;28;20782;-88
2023/09/08 10:13:29;;;;;;;;;;;32.20;88.40;;;;;;4939696;29;19935;-89
2023/09/08 10:15:57;;;;;;;;;;;31.90;92.50;;;;;;4936342;29;19931;-88
2023/09/08 10:18:23;;;;;;;;;;;31.70;93.10;;;;;;4935806;29;20006;-88
2023/09/08 10:20:51;;;;;;;;;;;31.40;87.90;;;;;;5008280;28;19933;-88
2023/09/08 10:23:24;;;;;;;;;;;31.10;89.50;;;;;;4942470;29;19931;-89
2023/09/08 10:25:54;;;;;;;;;;;30.90;92.80;;;;;;4939363;29;19927;-88
2023/09/08 10:28:21;;;;;;;;;;;30.60;90.50;;;;;;5024057;28;20516;-89
2023/09/08 10:30:47;;;;;;;;;;;30.40;93.90;;;;;;4937524;29;19927;-89
2023/09/08 10:33:14;;;;;;;;;;;30.30;94.50;;;;;;4941336;29;19927;-90
2023/09/08 10:35:40;;;;;;;;;;;30.30;94.60;;;;;;4940246;29;20025;-89
2023/09/08 10:38:32;;;;;;;;;;;30.30;93.70;;;;;;4903927;28;20078;-89
2023/09/08 10:41:19;;;;;;;;;;;30.10;93.00;;;;;;4943750;28;19938;-89
2023/09/08 10:43:44;;;;;;;;;;;30.10;96.70;;;;;;4931529;28;19937;-89
2023/09/08 10:46:10;;;;;;;;;;;30.10;94.30;;;;;;4942776;28;20022;-89
2023/09/08 10:48:43;;;;;;;;;;;30.10;95.10;;;;;;4940876;29;19926;-88
2023/09/08 10:51:16;;;;;;;;;;;30.20;96.20;;;;;;4940339;28;19942;-89
2023/09/08 10:53:42;;;;;;;;;;;30.30;95.90;;;;;;4942161;28;20029;-88
2023/09/08 10:56:07;;;;;;;;;;;30.30;96.10;;;;;;4939484;28;20403;-88
2023/09/08 10:58:35;;;;;;;;;;;30.40;94.30;;;;;;4934391;28;20418;-88
2023/09/08 11:01:01;;;;;;;;;;;30.60;94.60;;;;;;4929384;28;19935;-89
2023/09/08 11:03:37;;;;;;;;;;;30.60;93.20;;;;;;4996448;28;19929;-89
2023/09/08 11:06:03;;;;;;;;;;;30.60;94.10;;;;;;5023439;28;20411;-88
2023/09/08 11:08:28;;;;;;;;;;;30.60;92.70;;;;;;4938917;28;19931;-91
2023/09/08 11:10:54;;;;;;;;;;;30.60;93.10;;;;;;4919493;29;22057;-89
2023/09/08 11:13:20;;;;;;;;;;;30.60;92.40;;;;;;4921497;28;19930;-89
2023/09/08 11:15:46;;;;;;;;;;;30.50;93.20;;;;;;4923770;29;19934;-89
2023/09/08 11:18:11;;;;;;;;;;;30.50;92.30;;;;;;4938551;28;19934;-89
2023/09/08 11:20:37;;;;;;;;;;;30.50;93.10;;;;;;4941045;28;19927;-90
2023/09/08 11:23:04;;;;;;;;;;;30.40;93.80;;;;;;4935266;28;19927;-89
2023/09/08 11:25:32;;;;;;;;;;;30.40;91.70;;;;;;4940154;29;19934;-87
2023/09/08 11:27:57;;;;;;;;;;;30.50;91.90;;;;;;4941061;29;20767;-89
2023/09/08 11:30:24;;;;;;;;;;;30.60;90.40;;;;;;4928203;29;19926;-89
2023/09/08 11:32:49;;;;;;;;;;;30.60;92.20;;;;;;4929725;28;19965;-89
2023/09/08 11:35:16;;;;;;;;;;;30.70;91.60;;;;;;4944247;28;19927;-90
2023/09/08 11:37:41;;;;;;;;;;;30.80;90.90;;;;;;4945851;28;19927;-89
2023/09/08 11:40:14;;;;;;;;;;;30.90;88.80;;;;;;4944280;28;20044;-90
2023/09/08 11:42:46;;;;;;;;;;;31.00;83.40;;;;;;4944830;29;19966;-90
2023/09/08 11:45:12;;;;;;;;;;;31.10;85.20;;;;;;4946661;29;19938;-90
2023/09/08 11:47:42;;;;;;;;;;;31.10;80.20;;;;;;4942057;29;19934;-89
2023/09/08 11:50:09;;;;;;;;;;;31.10;83.60;;;;;;4939829;29;19927;-88
2023/09/08 11:52:34;;;;;;;;;;;31.10;87.30;;;;;;4938836;29;19935;-89
2023/09/08 11:55:00;;;;;;;;;;;31.20;83.70;;;;;;4949005;28;19937;-89
2023/09/08 11:57:26;;;;;;;;;;;31.30;82.30;;;;;;4922713;29;20471;-89
2023/09/08 11:59:51;;;;;;;;;;;31.40;81.90;;;;;;4936131;28;19973;-89
2023/09/08 12:02:17;;;;;;;;;;;31.40;79.10;;;;;;4934265;29;19927;-89
2023/09/08 12:04:43;;;;;;;;;;;31.30;74.90;;;;;;4936497;29;19941;-89
2023/09/08 12:07:14;;;;;;;;;;;31.30;77.80;;;;;;4941716;29;20393;-89
2023/09/08 12:09:40;;;;;;;;;;;31.30;80.90;;;;;;4939680;29;19945;-89
2023/09/08 12:12:10;;;;;;;;;;;31.30;83.20;;;;;;4939355;29;19962;-89
2023/09/08 12:14:40;;;;;;;;;;;31.30;77.30;;;;;;4938633;29;19927;-89
2023/09/08 12:17:08;;;;;;;;;;;31.20;76.80;;;;;;4935363;28;19937;-88
2023/09/08 12:19:37;;;;;;;;;;;31.20;81.40;;;;;;4939884;29;19931;-88
2023/09/08 12:22:03;;;;;;;;;;;31.10;81.30;;;;;;4935452;28;19931;-88
2023/09/08 12:24:50;;;;;;;;;;;31.20;76.90;;;;;;4939561;29;19927;-89
2023/09/08 12:27:17;;;;;;;;;;;31.40;78.20;;;;;;4939429;29;19949;-88
2023/09/08 12:30:00;;;;;;;;;;;31.50;73.90;;;;;;4933509;29;19926;-88
2023/09/08 12:32:28;;;;;;;;;;;31.70;74.90;;;;;;4938312;29;19927;-89
2023/09/08 12:34:53;;;;;;;;;;;31.70;72.20;;;;;;4940192;29;19927;-88
2023/09/08 12:37:23;;;;;;;;;;;31.60;78.80;;;;;;4941730;29;19938;-88
2023/09/08 12:39:48;;;;;;;;;;;31.60;74.60;;;;;;4942927;29;20015;-89
2023/09/08 12:42:14;;;;;;;;;;;31.60;74.30;;;;;;4940682;28;19981;-89
2023/09/08 12:44:40;;;;;;;;;;;31.50;71.10;;;;;;4925274;29;19931;-88
2023/09/08 12:47:06;;;;;;;;;;;31.40;71.70;;;;;;4938640;29;19927;-89
2023/09/08 12:49:32;;;;;;;;;;;31.40;73.20;;;;;;4939379;29;19938;-89
2023/09/08 12:51:57;;;;;;;;;;;31.50;72.90;;;;;;4920455;29;19930;-89
2023/09/08 12:54:24;;;;;;;;;;;31.50;73.90;;;;;;4922837;28;19934;-89
2023/09/08 12:56:50;;;;;;;;;;;31.40;73.40;;;;;;4936902;28;19983;-90
2023/09/08 12:59:16;;;;;;;;;;;31.30;77.80;;;;;;4922344;29;19961;-88
2023/09/08 13:01:41;;;;;;;;;;;31.30;74.80;;;;;;4919463;28;19927;-88
2023/09/08 13:04:07;;;;;;;;;;;31.20;71.90;;;;;;4923082;28;19927;-89
2023/09/08 13:06:34;;;;;;;;;;;31.20;74.20;;;;;;4954099;28;19927;-89
2023/09/08 13:09:00;;;;;;;;;;;31.30;74.40;;;;;;4938093;29;19927;-89
2023/09/08 13:11:26;;;;;;;;;;;31.40;70.80;;;;;;4953991;28;20285;-89
2023/09/08 13:13:51;;;;;;;;;;;31.50;71.90;;;;;;4941944;28;20420;-90
2023/09/08 13:16:17;;;;;;;;;;;31.70;68.50;;;;;;4939113;29;19966;-91
2023/09/08 13:18:44;;;;;;;;;;;31.70;71.60;;;;;;4938426;29;20034;-90
2023/09/08 13:21:10;;;;;;;;;;;31.60;70.20;;;;;;4938360;29;19926;-91
2023/09/08 13:23:36;;;;;;;;;;;31.50;71.40;;;;;;4954052;29;20439;-91
2023/09/08 13:26:01;;;;;;;;;;;31.50;68.60;;;;;;4939304;29;19931;-91
2023/09/08 13:28:27;;;;;;;;;;;31.50;70.00;;;;;;4938347;28;19934;-90
2023/09/08 13:30:53;;;;;;;;;;;31.60;69.60;;;;;;4953838;29;19934;-92
2023/09/08 13:33:18;;;;;;;;;;;31.70;70.40;;;;;;4939058;29;19927;-90
2023/09/08 13:35:44;;;;;;;;;;;31.60;71.80;;;;;;4937593;28;19938;-90
2023/09/08 13:38:09;;;;;;;;;;;31.50;68.80;;;;;;4938624;29;19927;-91
2023/09/08 13:40:35;;;;;;;;;;;31.40;69.40;;;;;;4939589;29;19926;-88
2023/09/08 13:43:01;;;;;;;;;;;31.30;69.60;;;;;;4943319;28;19942;-88
2023/09/08 13:45:26;;;;;;;;;;;31.30;70.10;;;;;;4919379;29;19935;-89
2023/09/08 13:47:52;;;;;;;;;;;31.20;72.00;;;;;;4922371;29;19981;-89
2023/09/08 13:50:17;;;;;;;;;;;31.30;73.10;;;;;;4942235;29;19934;-89
2023/09/08 13:52:43;;;;;;;;;;;31.50;73.50;;;;;;4941262;29;19970;-88
2023/09/08 13:55:10;;;;;;;;;;;31.70;68.80;;;;;;4962321;28;19927;-88
2023/09/08 13:57:35;;;;;;;;;;;31.80;68.60;;;;;;4939361;28;20305;-88
2023/09/08 14:00:02;;;;;;;;;;;31.80;68.30;;;;;;4940114;29;19931;-89
2023/09/08 14:02:27;;;;;;;;;;;31.60;68.40;;;;;;4941932;28;19927;-88
2023/09/08 14:04:53;;;;;;;;;;;31.40;69.20;;;;;;4951817;28;19937;-88
2023/09/08 14:07:19;;;;;;;;;;;31.40;71.40;;;;;;4923013;29;19938;-91
2023/09/08 14:09:44;;;;;;;;;;;31.50;70.90;;;;;;4938509;29;19992;-92
2023/09/08 14:12:10;;;;;;;;;;;31.60;70.50;;;;;;4942294;29;19926;-91